sensor_id;sensor_type;location;lat;lon;timestamp;P1;durP1;ratioP1;P2;durP2;ratioP2
5303;SDS011;2674;49.722;10.892;2023-01-30T00:00:28;23.33;;;12.97;;
5303;SDS011;2674;49.722;10.892;2023-01-30T00:02:54;34.63;;;14.57;;
5303;SDS011;2674;49.722;10.892;2023-01-30T00:05:20;23.50;;;13.67;;
5303;SDS011;2674;49.722;10.892;2023-01-30T00:07:46;24.30;;;13.40;;
5303;SDS011;2674;49.722;10.892;2023-01-30T00:10:12;26.93;;;13.37;;
5303;SDS011;2674;49.722;10.892;2023-01-30T00:12:38;24.90;;;13.43;;
5303;SDS011;2674;49.722;10.892;2023-01-30T00:15:05;25.83;;;14.00;;
5303;SDS011;2674;49.722;10.892;2023-01-30T00:17:32;28.87;;;15.33;;
5303;SDS011;2674;49.722;10.892;2023-01-30T00:19:58;25.97;;;13.57;;
5303;SDS011;2674;49.722;10.892;2023-01-30T00:22:23;23.03;;;14.00;;
5303;SDS011;2674;49.722;10.892;2023-01-30T00:24:49;31.30;;;15.17;;
5303;SDS011;2674;49.722;10.892;2023-01-30T00:27:15;24.83;;;12.63;;
5303;SDS011;2674;49.722;10.892;2023-01-30T00:29:41;25.63;;;14.23;;
5303;SDS011;2674;49.722;10.892;2023-01-30T00:32:07;27.43;;;14.00;;
5303;SDS011;2674;49.722;10.892;2023-01-30T00:34:33;32.10;;;15.60;;
5303;SDS011;2674;49.722;10.892;2023-01-30T00:36:59;27.63;;;14.67;;
5303;SDS011;2674;49.722;10.892;2023-01-30T00:39:25;33.90;;;16.03;;
5303;SDS011;2674;49.722;10.892;2023-01-30T00:41:51;24.90;;;14.07;;
5303;SDS011;2674;49.722;10.892;2023-01-30T00:44:35;28.63;;;13.53;;
5303;SDS011;2674;49.722;10.892;2023-01-30T00:47:20;26.57;;;13.87;;
5303;SDS011;2674;49.722;10.892;2023-01-30T00:49:46;26.33;;;14.27;;
5303;SDS011;2674;49.722;10.892;2023-01-30T00:52:12;28.83;;;15.50;;
5303;SDS011;2674;49.722;10.892;2023-01-30T00:54:38;25.40;;;13.60;;
5303;SDS011;2674;49.722;10.892;2023-01-30T00:57:04;29.60;;;15.07;;
5303;SDS011;2674;49.722;10.892;2023-01-30T00:59:30;26.47;;;14.13;;
5303;SDS011;2674;49.722;10.892;2023-01-30T01:01:55;31.43;;;16.00;;
5303;SDS011;2674;49.722;10.892;2023-01-30T01:04:21;26.03;;;13.33;;
5303;SDS011;2674;49.722;10.892;2023-01-30T01:06:50;24.17;;;13.43;;
5303;SDS011;2674;49.722;10.892;2023-01-30T01:09:16;30.50;;;14.70;;
5303;SDS011;2674;49.722;10.892;2023-01-30T01:11:42;30.40;;;15.20;;
5303;SDS011;2674;49.722;10.892;2023-01-30T01:14:07;24.40;;;13.40;;
5303;SDS011;2674;49.722;10.892;2023-01-30T01:16:34;23.57;;;13.27;;
5303;SDS011;2674;49.722;10.892;2023-01-30T01:19:00;27.33;;;14.93;;
5303;SDS011;2674;49.722;10.892;2023-01-30T01:21:26;24.93;;;13.70;;
5303;SDS011;2674;49.722;10.892;2023-01-30T01:23:53;23.47;;;12.80;;
5303;SDS011;2674;49.722;10.892;2023-01-30T01:26:21;29.00;;;15.43;;
5303;SDS011;2674;49.722;10.892;2023-01-30T01:28:47;27.87;;;14.10;;
5303;SDS011;2674;49.722;10.892;2023-01-30T01:31:14;28.93;;;17.60;;
5303;SDS011;2674;49.722;10.892;2023-01-30T01:33:41;27.53;;;15.20;;
5303;SDS011;2674;49.722;10.892;2023-01-30T01:36:07;31.67;;;15.27;;
5303;SDS011;2674;49.722;10.892;2023-01-30T01:38:33;27.90;;;14.80;;
5303;SDS011;2674;49.722;10.892;2023-01-30T01:40:59;29.17;;;12.50;;
5303;SDS011;2674;49.722;10.892;2023-01-30T01:44:15;27.77;;;14.70;;
5303;SDS011;2674;49.722;10.892;2023-01-30T01:46:43;32.97;;;14.30;;
5303;SDS011;2674;49.722;10.892;2023-01-30T01:54:33;34.50;;;15.43;;
5303;SDS011;2674;49.722;10.892;2023-01-30T01:57:09;35.00;;;16.00;;
5303;SDS011;2674;49.722;10.892;2023-01-30T01:59:47;33.47;;;16.60;;
5303;SDS011;2674;49.722;10.892;2023-01-30T02:02:16;29.83;;;14.57;;
5303;SDS011;2674;49.722;10.892;2023-01-30T02:04:44;26.50;;;13.97;;
5303;SDS011;2674;49.722;10.892;2023-01-30T02:07:35;33.63;;;14.13;;
5303;SDS011;2674;49.722;10.892;2023-01-30T02:10:06;28.60;;;15.27;;
5303;SDS011;2674;49.722;10.892;2023-01-30T02:12:35;27.30;;;14.40;;
5303;SDS011;2674;49.722;10.892;2023-01-30T02:15:03;25.57;;;14.97;;
5303;SDS011;2674;49.722;10.892;2023-01-30T02:17:30;29.57;;;15.03;;
5303;SDS011;2674;49.722;10.892;2023-01-30T02:20:04;28.73;;;14.33;;
5303;SDS011;2674;49.722;10.892;2023-01-30T02:26:00;25.53;;;14.30;;
5303;SDS011;2674;49.722;10.892;2023-01-30T02:29:20;23.40;;;13.47;;
5303;SDS011;2674;49.722;10.892;2023-01-30T02:34:56;35.90;;;14.30;;
5303;SDS011;2674;49.722;10.892;2023-01-30T02:48:27;25.83;;;14.20;;
5303;SDS011;2674;49.722;10.892;2023-01-30T02:51:00;27.33;;;15.13;;
5303;SDS011;2674;49.722;10.892;2023-01-30T02:53:31;31.43;;;14.80;;
5303;SDS011;2674;49.722;10.892;2023-01-30T02:55:58;29.50;;;16.20;;
5303;SDS011;2674;49.722;10.892;2023-01-30T02:58:24;27.70;;;14.57;;
5303;SDS011;2674;49.722;10.892;2023-01-30T03:09:00;29.40;;;12.97;;
5303;SDS011;2674;49.722;10.892;2023-01-30T03:11:34;29.00;;;14.70;;
5303;SDS011;2674;49.722;10.892;2023-01-30T03:14:32;26.87;;;13.57;;
5303;SDS011;2674;49.722;10.892;2023-01-30T03:17:18;28.03;;;14.60;;
5303;SDS011;2674;49.722;10.892;2023-01-30T03:19:47;25.03;;;12.60;;
5303;SDS011;2674;49.722;10.892;2023-01-30T03:22:13;28.20;;;13.43;;
5303;SDS011;2674;49.722;10.892;2023-01-30T03:24:39;25.47;;;12.60;;
5303;SDS011;2674;49.722;10.892;2023-01-30T03:27:06;24.33;;;12.87;;
5303;SDS011;2674;49.722;10.892;2023-01-30T03:29:35;27.00;;;14.00;;
5303;SDS011;2674;49.722;10.892;2023-01-30T03:32:01;29.70;;;15.10;;
5303;SDS011;2674;49.722;10.892;2023-01-30T03:34:27;22.17;;;13.07;;
5303;SDS011;2674;49.722;10.892;2023-01-30T03:36:53;21.67;;;13.57;;
5303;SDS011;2674;49.722;10.892;2023-01-30T03:39:20;23.13;;;11.50;;
5303;SDS011;2674;49.722;10.892;2023-01-30T03:41:47;25.63;;;13.23;;
5303;SDS011;2674;49.722;10.892;2023-01-30T03:44:16;25.73;;;13.33;;
5303;SDS011;2674;49.722;10.892;2023-01-30T03:46:42;24.17;;;13.17;;
5303;SDS011;2674;49.722;10.892;2023-01-30T03:49:07;26.67;;;12.67;;
5303;SDS011;2674;49.722;10.892;2023-01-30T03:51:33;28.20;;;13.20;;
5303;SDS011;2674;49.722;10.892;2023-01-30T03:53:59;27.43;;;12.73;;
5303;SDS011;2674;49.722;10.892;2023-01-30T03:56:25;25.87;;;13.23;;
5303;SDS011;2674;49.722;10.892;2023-01-30T03:58:51;23.10;;;12.17;;
5303;SDS011;2674;49.722;10.892;2023-01-30T04:01:16;23.30;;;12.80;;
5303;SDS011;2674;49.722;10.892;2023-01-30T04:03:42;23.53;;;12.63;;
5303;SDS011;2674;49.722;10.892;2023-01-30T04:06:08;23.87;;;12.80;;
5303;SDS011;2674;49.722;10.892;2023-01-30T04:08:34;19.70;;;10.27;;
5303;SDS011;2674;49.722;10.892;2023-01-30T04:11:00;21.27;;;11.30;;
5303;SDS011;2674;49.722;10.892;2023-01-30T04:13:25;26.23;;;13.07;;
5303;SDS011;2674;49.722;10.892;2023-01-30T04:15:51;23.27;;;11.33;;
5303;SDS011;2674;49.722;10.892;2023-01-30T04:18:17;21.20;;;10.77;;
5303;SDS011;2674;49.722;10.892;2023-01-30T04:20:44;19.87;;;10.73;;
5303;SDS011;2674;49.722;10.892;2023-01-30T04:23:09;19.70;;;10.70;;
5303;SDS011;2674;49.722;10.892;2023-01-30T04:25:35;20.87;;;11.27;;
5303;SDS011;2674;49.722;10.892;2023-01-30T04:28:01;22.73;;;10.87;;
5303;SDS011;2674;49.722;10.892;2023-01-30T04:30:27;17.07;;;10.43;;
5303;SDS011;2674;49.722;10.892;2023-01-30T04:32:53;16.90;;;9.77;;
5303;SDS011;2674;49.722;10.892;2023-01-30T04:35:18;17.90;;;9.00;;
5303;SDS011;2674;49.722;10.892;2023-01-30T04:37:44;21.17;;;10.63;;
5303;SDS011;2674;49.722;10.892;2023-01-30T04:40:10;16.37;;;9.97;;
5303;SDS011;2674;49.722;10.892;2023-01-30T04:42:36;14.27;;;9.47;;
5303;SDS011;2674;49.722;10.892;2023-01-30T04:45:02;16.20;;;9.73;;
5303;SDS011;2674;49.722;10.892;2023-01-30T04:47:28;16.77;;;9.93;;
5303;SDS011;2674;49.722;10.892;2023-01-30T04:49:54;14.60;;;8.47;;
5303;SDS011;2674;49.722;10.892;2023-01-30T04:52:19;15.13;;;9.17;;
5303;SDS011;2674;49.722;10.892;2023-01-30T04:54:45;19.77;;;12.23;;
5303;SDS011;2674;49.722;10.892;2023-01-30T04:57:11;23.93;;;12.03;;
5303;SDS011;2674;49.722;10.892;2023-01-30T04:59:37;18.40;;;9.50;;
5303;SDS011;2674;49.722;10.892;2023-01-30T05:02:03;19.30;;;10.03;;
5303;SDS011;2674;49.722;10.892;2023-01-30T05:04:28;18.13;;;10.77;;
5303;SDS011;2674;49.722;10.892;2023-01-30T05:06:54;16.97;;;9.53;;
5303;SDS011;2674;49.722;10.892;2023-01-30T05:09:20;18.80;;;10.20;;
5303;SDS011;2674;49.722;10.892;2023-01-30T05:11:46;18.07;;;9.93;;
5303;SDS011;2674;49.722;10.892;2023-01-30T05:14:12;18.40;;;9.90;;
5303;SDS011;2674;49.722;10.892;2023-01-30T05:16:37;17.60;;;9.50;;
5303;SDS011;2674;49.722;10.892;2023-01-30T05:19:03;21.87;;;10.97;;
5303;SDS011;2674;49.722;10.892;2023-01-30T05:21:29;18.67;;;9.67;;
5303;SDS011;2674;49.722;10.892;2023-01-30T05:23:55;19.37;;;10.67;;
5303;SDS011;2674;49.722;10.892;2023-01-30T05:26:21;18.37;;;10.50;;
5303;SDS011;2674;49.722;10.892;2023-01-30T05:28:52;19.07;;;10.80;;
5303;SDS011;2674;49.722;10.892;2023-01-30T05:31:19;19.93;;;11.10;;
5303;SDS011;2674;49.722;10.892;2023-01-30T05:33:45;20.37;;;10.00;;
5303;SDS011;2674;49.722;10.892;2023-01-30T05:36:13;33.07;;;15.17;;
5303;SDS011;2674;49.722;10.892;2023-01-30T05:38:41;28.73;;;11.47;;
5303;SDS011;2674;49.722;10.892;2023-01-30T05:41:09;13.70;;;9.97;;
5303;SDS011;2674;49.722;10.892;2023-01-30T05:43:35;18.77;;;10.20;;
5303;SDS011;2674;49.722;10.892;2023-01-30T05:46:03;21.87;;;11.83;;
5303;SDS011;2674;49.722;10.892;2023-01-30T05:48:29;17.93;;;10.60;;
5303;SDS011;2674;49.722;10.892;2023-01-30T05:50:57;19.13;;;9.83;;
5303;SDS011;2674;49.722;10.892;2023-01-30T05:53:25;17.60;;;8.77;;
5303;SDS011;2674;49.722;10.892;2023-01-30T05:56:02;19.20;;;10.70;;
5303;SDS011;2674;49.722;10.892;2023-01-30T05:58:29;15.33;;;8.13;;
5303;SDS011;2674;49.722;10.892;2023-01-30T06:01:00;16.13;;;8.30;;
5303;SDS011;2674;49.722;10.892;2023-01-30T06:03:27;15.50;;;9.70;;
5303;SDS011;2674;49.722;10.892;2023-01-30T06:05:53;13.83;;;9.27;;
5303;SDS011;2674;49.722;10.892;2023-01-30T06:08:19;15.30;;;9.33;;
5303;SDS011;2674;49.722;10.892;2023-01-30T06:10:45;13.80;;;7.53;;
5303;SDS011;2674;49.722;10.892;2023-01-30T06:13:11;16.67;;;9.90;;
5303;SDS011;2674;49.722;10.892;2023-01-30T06:15:37;17.20;;;8.97;;
5303;SDS011;2674;49.722;10.892;2023-01-30T06:18:02;12.07;;;7.13;;
5303;SDS011;2674;49.722;10.892;2023-01-30T06:20:28;14.97;;;9.17;;
5303;SDS011;2674;49.722;10.892;2023-01-30T06:22:54;11.47;;;7.37;;
5303;SDS011;2674;49.722;10.892;2023-01-30T06:25:20;13.37;;;7.30;;
5303;SDS011;2674;49.722;10.892;2023-01-30T06:27:46;17.73;;;9.43;;
5303;SDS011;2674;49.722;10.892;2023-01-30T06:30:11;12.43;;;8.10;;
5303;SDS011;2674;49.722;10.892;2023-01-30T06:32:37;15.13;;;8.20;;
5303;SDS011;2674;49.722;10.892;2023-01-30T06:35:03;17.77;;;8.60;;
5303;SDS011;2674;49.722;10.892;2023-01-30T06:37:29;17.07;;;9.87;;
5303;SDS011;2674;49.722;10.892;2023-01-30T06:39:55;13.67;;;7.80;;
5303;SDS011;2674;49.722;10.892;2023-01-30T06:42:21;15.80;;;8.50;;
5303;SDS011;2674;49.722;10.892;2023-01-30T06:44:47;19.87;;;10.10;;
5303;SDS011;2674;49.722;10.892;2023-01-30T06:47:13;16.83;;;9.37;;
5303;SDS011;2674;49.722;10.892;2023-01-30T06:49:39;12.57;;;7.57;;
5303;SDS011;2674;49.722;10.892;2023-01-30T06:52:05;13.80;;;7.20;;
5303;SDS011;2674;49.722;10.892;2023-01-30T06:54:31;19.20;;;9.53;;
5303;SDS011;2674;49.722;10.892;2023-01-30T06:56:57;17.67;;;8.93;;
5303;SDS011;2674;49.722;10.892;2023-01-30T06:59:23;16.43;;;9.10;;
5303;SDS011;2674;49.722;10.892;2023-01-30T07:01:48;17.37;;;9.20;;
5303;SDS011;2674;49.722;10.892;2023-01-30T07:04:14;14.43;;;8.90;;
5303;SDS011;2674;49.722;10.892;2023-01-30T07:06:40;24.90;;;10.97;;
5303;SDS011;2674;49.722;10.892;2023-01-30T07:09:06;18.83;;;10.60;;
5303;SDS011;2674;49.722;10.892;2023-01-30T07:11:32;16.83;;;9.40;;
5303;SDS011;2674;49.722;10.892;2023-01-30T07:13:57;13.53;;;8.00;;
5303;SDS011;2674;49.722;10.892;2023-01-30T07:16:23;15.23;;;8.37;;
5303;SDS011;2674;49.722;10.892;2023-01-30T07:18:54;16.20;;;9.33;;
5303;SDS011;2674;49.722;10.892;2023-01-30T07:21:22;16.03;;;8.73;;
5303;SDS011;2674;49.722;10.892;2023-01-30T07:23:48;16.10;;;9.93;;
5303;SDS011;2674;49.722;10.892;2023-01-30T07:26:14;19.40;;;9.17;;
5303;SDS011;2674;49.722;10.892;2023-01-30T07:28:40;15.20;;;9.30;;
5303;SDS011;2674;49.722;10.892;2023-01-30T07:31:06;17.50;;;9.13;;
5303;SDS011;2674;49.722;10.892;2023-01-30T07:33:31;18.93;;;9.80;;
5303;SDS011;2674;49.722;10.892;2023-01-30T07:35:57;17.97;;;9.60;;
5303;SDS011;2674;49.722;10.892;2023-01-30T07:38:23;17.53;;;10.53;;
5303;SDS011;2674;49.722;10.892;2023-01-30T07:40:50;14.70;;;8.73;;
5303;SDS011;2674;49.722;10.892;2023-01-30T07:43:16;15.50;;;10.07;;
5303;SDS011;2674;49.722;10.892;2023-01-30T07:45:43;18.73;;;10.30;;
5303;SDS011;2674;49.722;10.892;2023-01-30T07:48:14;16.03;;;9.13;;
5303;SDS011;2674;49.722;10.892;2023-01-30T07:50:42;17.73;;;9.17;;
5303;SDS011;2674;49.722;10.892;2023-01-30T07:53:09;16.63;;;8.93;;
5303;SDS011;2674;49.722;10.892;2023-01-30T07:55:36;17.07;;;10.20;;
5303;SDS011;2674;49.722;10.892;2023-01-30T07:58:03;11.13;;;7.87;;
5303;SDS011;2674;49.722;10.892;2023-01-30T08:00:29;12.80;;;8.20;;
5303;SDS011;2674;49.722;10.892;2023-01-30T08:02:55;15.97;;;8.93;;
5303;SDS011;2674;49.722;10.892;2023-01-30T08:05:20;15.90;;;9.23;;
5303;SDS011;2674;49.722;10.892;2023-01-30T08:07:46;17.80;;;9.57;;
5303;SDS011;2674;49.722;10.892;2023-01-30T08:10:13;15.20;;;8.50;;
5303;SDS011;2674;49.722;10.892;2023-01-30T08:12:40;11.60;;;7.33;;
5303;SDS011;2674;49.722;10.892;2023-01-30T08:15:06;15.40;;;9.10;;
5303;SDS011;2674;49.722;10.892;2023-01-30T08:17:34;13.03;;;7.50;;
5303;SDS011;2674;49.722;10.892;2023-01-30T08:20:00;7.60;;;4.90;;
5303;SDS011;2674;49.722;10.892;2023-01-30T08:22:27;14.83;;;9.93;;
5303;SDS011;2674;49.722;10.892;2023-01-30T08:24:52;13.60;;;8.30;;
5303;SDS011;2674;49.722;10.892;2023-01-30T08:27:18;13.37;;;9.10;;
5303;SDS011;2674;49.722;10.892;2023-01-30T08:29:44;14.40;;;9.30;;
5303;SDS011;2674;49.722;10.892;2023-01-30T08:32:10;21.00;;;10.40;;
5303;SDS011;2674;49.722;10.892;2023-01-30T08:34:36;15.00;;;7.97;;
5303;SDS011;2674;49.722;10.892;2023-01-30T08:37:02;16.80;;;9.80;;
5303;SDS011;2674;49.722;10.892;2023-01-30T08:39:28;13.07;;;7.47;;
5303;SDS011;2674;49.722;10.892;2023-01-30T08:41:54;15.77;;;9.10;;
5303;SDS011;2674;49.722;10.892;2023-01-30T08:44:19;16.80;;;9.80;;
5303;SDS011;2674;49.722;10.892;2023-01-30T08:46:45;13.73;;;8.80;;
5303;SDS011;2674;49.722;10.892;2023-01-30T08:49:11;18.40;;;9.80;;
5303;SDS011;2674;49.722;10.892;2023-01-30T08:51:37;16.03;;;9.20;;
5303;SDS011;2674;49.722;10.892;2023-01-30T08:54:03;14.57;;;10.30;;
5303;SDS011;2674;49.722;10.892;2023-01-30T08:56:31;19.83;;;10.33;;
5303;SDS011;2674;49.722;10.892;2023-01-30T08:58:57;17.70;;;10.40;;
5303;SDS011;2674;49.722;10.892;2023-01-30T09:01:23;16.90;;;9.07;;
5303;SDS011;2674;49.722;10.892;2023-01-30T09:03:49;13.40;;;9.07;;
5303;SDS011;2674;49.722;10.892;2023-01-30T09:06:14;13.10;;;8.23;;
5303;SDS011;2674;49.722;10.892;2023-01-30T09:08:41;18.10;;;10.63;;
5303;SDS011;2674;49.722;10.892;2023-01-30T09:11:09;17.00;;;9.53;;
5303;SDS011;2674;49.722;10.892;2023-01-30T09:13:35;14.40;;;9.10;;
5303;SDS011;2674;49.722;10.892;2023-01-30T09:16:05;15.90;;;8.83;;
5303;SDS011;2674;49.722;10.892;2023-01-30T09:18:31;17.17;;;10.30;;
5303;SDS011;2674;49.722;10.892;2023-01-30T09:21:03;20.97;;;9.90;;
5303;SDS011;2674;49.722;10.892;2023-01-30T09:23:29;19.13;;;9.43;;
5303;SDS011;2674;49.722;10.892;2023-01-30T09:25:55;17.00;;;9.20;;
5303;SDS011;2674;49.722;10.892;2023-01-30T09:28:21;12.07;;;7.77;;
5303;SDS011;2674;49.722;10.892;2023-01-30T09:30:47;18.10;;;9.97;;
5303;SDS011;2674;49.722;10.892;2023-01-30T09:33:13;15.00;;;9.17;;
5303;SDS011;2674;49.722;10.892;2023-01-30T09:35:40;16.43;;;9.73;;
5303;SDS011;2674;49.722;10.892;2023-01-30T09:38:06;11.70;;;7.30;;
5303;SDS011;2674;49.722;10.892;2023-01-30T09:40:32;15.83;;;8.80;;
5303;SDS011;2674;49.722;10.892;2023-01-30T09:43:07;13.17;;;8.17;;
5303;SDS011;2674;49.722;10.892;2023-01-30T09:48:47;12.93;;;7.53;;
5303;SDS011;2674;49.722;10.892;2023-01-30T09:56:40;14.90;;;7.30;;
5303;SDS011;2674;49.722;10.892;2023-01-30T09:59:05;21.80;;;8.70;;
5303;SDS011;2674;49.722;10.892;2023-01-30T10:01:53;14.67;;;7.87;;
5303;SDS011;2674;49.722;10.892;2023-01-30T10:04:44;12.60;;;7.80;;
5303;SDS011;2674;49.722;10.892;2023-01-30T10:09:50;14.63;;;8.10;;
5303;SDS011;2674;49.722;10.892;2023-01-30T10:20:48;14.00;;;8.00;;
5303;SDS011;2674;49.722;10.892;2023-01-30T10:23:49;15.77;;;7.87;;
5303;SDS011;2674;49.722;10.892;2023-01-30T10:26:42;14.00;;;8.10;;
5303;SDS011;2674;49.722;10.892;2023-01-30T10:29:25;8.40;;;6.53;;
5303;SDS011;2674;49.722;10.892;2023-01-30T10:32:04;12.57;;;7.03;;
5303;SDS011;2674;49.722;10.892;2023-01-30T10:34:36;9.70;;;5.63;;
5303;SDS011;2674;49.722;10.892;2023-01-30T10:37:09;9.10;;;6.33;;
5303;SDS011;2674;49.722;10.892;2023-01-30T10:42:12;9.70;;;5.83;;
5303;SDS011;2674;49.722;10.892;2023-01-30T10:44:43;6.40;;;4.50;;
5303;SDS011;2674;49.722;10.892;2023-01-30T10:49:55;7.37;;;5.03;;
5303;SDS011;2674;49.722;10.892;2023-01-30T11:03:33;9.10;;;5.63;;
5303;SDS011;2674;49.722;10.892;2023-01-30T11:08:36;8.33;;;5.93;;
5303;SDS011;2674;49.722;10.892;2023-01-30T11:14:08;8.60;;;5.30;;
5303;SDS011;2674;49.722;10.892;2023-01-30T11:19:24;8.50;;;5.20;;
5303;SDS011;2674;49.722;10.892;2023-01-30T11:21:59;9.00;;;5.60;;
5303;SDS011;2674;49.722;10.892;2023-01-30T11:24:30;10.47;;;6.70;;
5303;SDS011;2674;49.722;10.892;2023-01-30T11:29:37;7.57;;;5.60;;
5303;SDS011;2674;49.722;10.892;2023-01-30T11:32:05;6.17;;;4.70;;
5303;SDS011;2674;49.722;10.892;2023-01-30T11:34:42;8.77;;;6.67;;
5303;SDS011;2674;49.722;10.892;2023-01-30T11:37:30;9.23;;;6.27;;
5303;SDS011;2674;49.722;10.892;2023-01-30T11:42:45;8.57;;;5.40;;
5303;SDS011;2674;49.722;10.892;2023-01-30T11:45:13;8.87;;;5.73;;
5303;SDS011;2674;49.722;10.892;2023-01-30T11:47:45;8.67;;;6.53;;
5303;SDS011;2674;49.722;10.892;2023-01-30T11:50:17;9.10;;;6.07;;
5303;SDS011;2674;49.722;10.892;2023-01-30T11:52:46;11.10;;;6.97;;
5303;SDS011;2674;49.722;10.892;2023-01-30T11:55:13;5.73;;;4.73;;
5303;SDS011;2674;49.722;10.892;2023-01-30T11:57:46;8.10;;;5.10;;
5303;SDS011;2674;49.722;10.892;2023-01-30T12:00:19;7.00;;;5.77;;
5303;SDS011;2674;49.722;10.892;2023-01-30T12:02:52;8.80;;;6.77;;
5303;SDS011;2674;49.722;10.892;2023-01-30T12:07:51;9.23;;;5.53;;
5303;SDS011;2674;49.722;10.892;2023-01-30T12:15:50;8.33;;;6.17;;
5303;SDS011;2674;49.722;10.892;2023-01-30T12:18:30;7.73;;;5.30;;
5303;SDS011;2674;49.722;10.892;2023-01-30T12:21:02;8.80;;;5.80;;
5303;SDS011;2674;49.722;10.892;2023-01-30T12:23:58;8.03;;;5.80;;
5303;SDS011;2674;49.722;10.892;2023-01-30T12:27:15;8.90;;;5.90;;
5303;SDS011;2674;49.722;10.892;2023-01-30T12:30:04;7.90;;;4.90;;
5303;SDS011;2674;49.722;10.892;2023-01-30T12:32:57;13.13;;;6.33;;
5303;SDS011;2674;49.722;10.892;2023-01-30T12:35:38;15.90;;;8.50;;
5303;SDS011;2674;49.722;10.892;2023-01-30T12:38:46;14.20;;;8.07;;
5303;SDS011;2674;49.722;10.892;2023-01-30T12:44:04;6.90;;;5.57;;
5303;SDS011;2674;49.722;10.892;2023-01-30T12:47:00;8.13;;;6.40;;
5303;SDS011;2674;49.722;10.892;2023-01-30T13:01:14;15.37;;;5.67;;
5303;SDS011;2674;49.722;10.892;2023-01-30T13:20:51;9.00;;;6.67;;
5303;SDS011;2674;49.722;10.892;2023-01-30T13:26:15;6.03;;;5.30;;
5303;SDS011;2674;49.722;10.892;2023-01-30T13:28:49;6.70;;;4.77;;
5303;SDS011;2674;49.722;10.892;2023-01-30T13:31:20;13.13;;;7.00;;
5303;SDS011;2674;49.722;10.892;2023-01-30T13:33:50;7.97;;;6.07;;
5303;SDS011;2674;49.722;10.892;2023-01-30T13:40:38;8.00;;;5.40;;
5303;SDS011;2674;49.722;10.892;2023-01-30T13:45:32;7.23;;;5.03;;
5303;SDS011;2674;49.722;10.892;2023-01-30T13:50:51;5.77;;;4.97;;
5303;SDS011;2674;49.722;10.892;2023-01-30T13:53:40;5.90;;;4.33;;
5303;SDS011;2674;49.722;10.892;2023-01-30T13:59:36;6.00;;;5.37;;
5303;SDS011;2674;49.722;10.892;2023-01-30T14:07:06;7.17;;;5.03;;
5303;SDS011;2674;49.722;10.892;2023-01-30T14:09:39;8.10;;;5.63;;
5303;SDS011;2674;49.722;10.892;2023-01-30T14:12:18;6.40;;;5.43;;
5303;SDS011;2674;49.722;10.892;2023-01-30T14:20:34;14.53;;;7.27;;
5303;SDS011;2674;49.722;10.892;2023-01-30T14:26:00;10.53;;;5.50;;
5303;SDS011;2674;49.722;10.892;2023-01-30T14:30:55;7.70;;;5.53;;
5303;SDS011;2674;49.722;10.892;2023-01-30T14:38:27;4.60;;;3.63;;
5303;SDS011;2674;49.722;10.892;2023-01-30T14:48:34;7.77;;;5.17;;
5303;SDS011;2674;49.722;10.892;2023-01-30T14:51:20;8.67;;;4.83;;
5303;SDS011;2674;49.722;10.892;2023-01-30T14:57:13;4.60;;;3.47;;
5303;SDS011;2674;49.722;10.892;2023-01-30T15:16:00;5.10;;;3.93;;
5303;SDS011;2674;49.722;10.892;2023-01-30T15:27:31;6.00;;;4.70;;
5303;SDS011;2674;49.722;10.892;2023-01-30T15:32:40;5.00;;;4.00;;
5303;SDS011;2674;49.722;10.892;2023-01-30T15:37:45;6.07;;;4.37;;
5303;SDS011;2674;49.722;10.892;2023-01-30T15:42:46;5.83;;;4.37;;
5303;SDS011;2674;49.722;10.892;2023-01-30T15:50:55;5.70;;;3.50;;
5303;SDS011;2674;49.722;10.892;2023-01-30T15:53:45;7.07;;;4.80;;
5303;SDS011;2674;49.722;10.892;2023-01-30T15:56:15;8.03;;;4.30;;
5303;SDS011;2674;49.722;10.892;2023-01-30T15:58:44;6.10;;;4.33;;
5303;SDS011;2674;49.722;10.892;2023-01-30T16:01:18;7.53;;;5.60;;
5303;SDS011;2674;49.722;10.892;2023-01-30T16:03:45;8.80;;;4.60;;
5303;SDS011;2674;49.722;10.892;2023-01-30T16:09:20;5.30;;;4.30;;
5303;SDS011;2674;49.722;10.892;2023-01-30T16:11:47;8.23;;;5.00;;
5303;SDS011;2674;49.722;10.892;2023-01-30T16:14:15;12.03;;;5.13;;
5303;SDS011;2674;49.722;10.892;2023-01-30T16:19:27;10.83;;;6.33;;
5303;SDS011;2674;49.722;10.892;2023-01-30T16:21:59;10.27;;;6.20;;
5303;SDS011;2674;49.722;10.892;2023-01-30T16:24:28;12.50;;;5.50;;
5303;SDS011;2674;49.722;10.892;2023-01-30T16:27:01;7.80;;;4.90;;
5303;SDS011;2674;49.722;10.892;2023-01-30T16:29:45;10.03;;;6.17;;
5303;SDS011;2674;49.722;10.892;2023-01-30T16:32:15;17.17;;;8.00;;
5303;SDS011;2674;49.722;10.892;2023-01-30T16:34:43;11.17;;;7.07;;
5303;SDS011;2674;49.722;10.892;2023-01-30T16:39:44;17.50;;;8.03;;
5303;SDS011;2674;49.722;10.892;2023-01-30T16:42:25;13.03;;;7.80;;
5303;SDS011;2674;49.722;10.892;2023-01-30T16:45:19;9.60;;;6.10;;
5303;SDS011;2674;49.722;10.892;2023-01-30T16:50:42;9.47;;;6.40;;
5303;SDS011;2674;49.722;10.892;2023-01-30T16:53:13;7.70;;;5.17;;
5303;SDS011;2674;49.722;10.892;2023-01-30T16:58:42;8.40;;;5.07;;
5303;SDS011;2674;49.722;10.892;2023-01-30T17:01:12;9.30;;;6.13;;
5303;SDS011;2674;49.722;10.892;2023-01-30T17:03:41;11.27;;;6.33;;
5303;SDS011;2674;49.722;10.892;2023-01-30T17:06:24;13.20;;;6.13;;
5303;SDS011;2674;49.722;10.892;2023-01-30T17:09:00;9.43;;;6.53;;
5303;SDS011;2674;49.722;10.892;2023-01-30T17:14:18;17.17;;;7.40;;
5303;SDS011;2674;49.722;10.892;2023-01-30T17:17:07;14.17;;;8.13;;
5303;SDS011;2674;49.722;10.892;2023-01-30T17:19:39;10.00;;;6.83;;
5303;SDS011;2674;49.722;10.892;2023-01-30T17:22:06;10.23;;;7.83;;
5303;SDS011;2674;49.722;10.892;2023-01-30T17:24:40;9.93;;;6.00;;
5303;SDS011;2674;49.722;10.892;2023-01-30T17:27:06;12.37;;;6.27;;
5303;SDS011;2674;49.722;10.892;2023-01-30T17:29:32;8.70;;;5.30;;
5303;SDS011;2674;49.722;10.892;2023-01-30T17:31:59;12.87;;;7.50;;
5303;SDS011;2674;49.722;10.892;2023-01-30T17:34:25;9.57;;;6.13;;
5303;SDS011;2674;49.722;10.892;2023-01-30T17:36:52;9.30;;;5.47;;
5303;SDS011;2674;49.722;10.892;2023-01-30T17:39:20;15.10;;;6.90;;
5303;SDS011;2674;49.722;10.892;2023-01-30T17:41:47;9.83;;;6.77;;
5303;SDS011;2674;49.722;10.892;2023-01-30T17:44:13;7.73;;;5.43;;
5303;SDS011;2674;49.722;10.892;2023-01-30T17:46:41;12.83;;;6.30;;
5303;SDS011;2674;49.722;10.892;2023-01-30T17:49:21;18.50;;;6.30;;
5303;SDS011;2674;49.722;10.892;2023-01-30T17:51:48;7.60;;;5.30;;
5303;SDS011;2674;49.722;10.892;2023-01-30T17:54:15;8.40;;;4.70;;
5303;SDS011;2674;49.722;10.892;2023-01-30T17:56:43;9.00;;;5.83;;
5303;SDS011;2674;49.722;10.892;2023-01-30T17:59:12;8.33;;;5.40;;
5303;SDS011;2674;49.722;10.892;2023-01-30T18:01:40;6.57;;;5.00;;
5303;SDS011;2674;49.722;10.892;2023-01-30T18:04:07;11.90;;;7.63;;
5303;SDS011;2674;49.722;10.892;2023-01-30T18:06:32;10.97;;;6.50;;
5303;SDS011;2674;49.722;10.892;2023-01-30T18:08:59;19.20;;;9.10;;
5303;SDS011;2674;49.722;10.892;2023-01-30T18:11:25;12.10;;;7.40;;
5303;SDS011;2674;49.722;10.892;2023-01-30T18:13:51;19.20;;;7.30;;
5303;SDS011;2674;49.722;10.892;2023-01-30T18:16:22;13.37;;;6.30;;
5303;SDS011;2674;49.722;10.892;2023-01-30T18:18:55;11.03;;;6.37;;
5303;SDS011;2674;49.722;10.892;2023-01-30T18:21:22;11.27;;;7.00;;
5303;SDS011;2674;49.722;10.892;2023-01-30T18:23:48;6.87;;;4.87;;
5303;SDS011;2674;49.722;10.892;2023-01-30T18:26:14;12.67;;;6.10;;
5303;SDS011;2674;49.722;10.892;2023-01-30T18:28:41;14.13;;;6.30;;
5303;SDS011;2674;49.722;10.892;2023-01-30T18:31:11;13.80;;;7.10;;
5303;SDS011;2674;49.722;10.892;2023-01-30T18:33:37;16.00;;;8.37;;
5303;SDS011;2674;49.722;10.892;2023-01-30T18:36:09;12.80;;;7.37;;
5303;SDS011;2674;49.722;10.892;2023-01-30T18:38:40;17.17;;;6.70;;
5303;SDS011;2674;49.722;10.892;2023-01-30T18:41:20;11.60;;;6.43;;
5303;SDS011;2674;49.722;10.892;2023-01-30T18:43:52;12.73;;;6.87;;